sensor_id;sensor_type;location;lat;lon;timestamp;P1;durP1;ratioP1;P2;durP2;ratioP2
9938;SDS011;5008;50.656;7.188;2023-07-02T04:02:45;9.20;;;6.82;;
9938;SDS011;5008;50.656;7.188;2023-07-02T04:05:12;8.60;;;6.57;;
9938;SDS011;5008;50.656;7.188;2023-07-02T04:07:39;8.50;;;6.63;;
9938;SDS011;5008;50.656;7.188;2023-07-02T04:10:06;8.75;;;7.10;;
9938;SDS011;5008;50.656;7.188;2023-07-02T04:12:34;9.50;;;6.90;;
9938;SDS011;5008;50.656;7.188;2023-07-02T04:53:48;8.57;;;6.53;;
9938;SDS011;5008;50.656;7.188;2023-07-02T04:56:14;10.18;;;7.47;;
9938;SDS011;5008;50.656;7.188;2023-07-02T04:58:41;9.48;;;7.10;;
9938;SDS011;5008;50.656;7.188;2023-07-02T05:01:08;11.52;;;7.65;;
9938;SDS011;5008;50.656;7.188;2023-07-02T05:03:36;11.30;;;7.50;;
9938;SDS011;5008;50.656;7.188;2023-07-02T05:06:03;9.05;;;7.22;;
9938;SDS011;5008;50.656;7.188;2023-07-02T05:08:30;10.40;;;7.00;;
9938;SDS011;5008;50.656;7.188;2023-07-02T05:10:58;10.23;;;7.65;;
9938;SDS011;5008;50.656;7.188;2023-07-02T05:13:25;9.52;;;7.18;;
9938;SDS011;5008;50.656;7.188;2023-07-02T05:15:52;9.68;;;7.47;;
9938;SDS011;5008;50.656;7.188;2023-07-02T05:18:18;11.40;;;7.75;;
9938;SDS011;5008;50.656;7.188;2023-07-02T05:20:45;11.32;;;8.18;;
9938;SDS011;5008;50.656;7.188;2023-07-02T05:23:12;10.00;;;7.50;;
9938;SDS011;5008;50.656;7.188;2023-07-02T05:25:39;10.25;;;7.57;;
9938;SDS011;5008;50.656;7.188;2023-07-02T05:28:07;9.80;;;7.65;;
9938;SDS011;5008;50.656;7.188;2023-07-02T05:30:34;11.10;;;7.32;;
9938;SDS011;5008;50.656;7.188;2023-07-02T05:33:00;10.00;;;7.80;;
9938;SDS011;5008;50.656;7.188;2023-07-02T05:35:27;9.82;;;8.48;;
9938;SDS011;5008;50.656;7.188;2023-07-02T05:37:54;10.73;;;7.40;;
9938;SDS011;5008;50.656;7.188;2023-07-02T05:40:21;11.55;;;8.35;;
9938;SDS011;5008;50.656;7.188;2023-07-02T05:42:48;10.65;;;8.48;;
9938;SDS011;5008;50.656;7.188;2023-07-02T05:45:16;10.98;;;8.07;;
9938;SDS011;5008;50.656;7.188;2023-07-02T05:47:43;9.80;;;8.25;;
9938;SDS011;5008;50.656;7.188;2023-07-02T05:50:10;14.65;;;11.20;;
9938;SDS011;5008;50.656;7.188;2023-07-02T05:52:36;12.85;;;9.65;;
9938;SDS011;5008;50.656;7.188;2023-07-02T05:55:04;12.85;;;9.20;;
9938;SDS011;5008;50.656;7.188;2023-07-02T05:57:31;12.63;;;9.63;;
9938;SDS011;5008;50.656;7.188;2023-07-02T05:59:58;16.40;;;11.93;;
9938;SDS011;5008;50.656;7.188;2023-07-02T06:02:26;18.00;;;12.50;;
9938;SDS011;5008;50.656;7.188;2023-07-02T06:04:53;19.63;;;13.40;;
9938;SDS011;5008;50.656;7.188;2023-07-02T06:07:19;16.70;;;12.10;;
9938;SDS011;5008;50.656;7.188;2023-07-02T06:09:46;17.25;;;12.55;;
9938;SDS011;5008;50.656;7.188;2023-07-02T06:12:13;19.23;;;13.43;;
9938;SDS011;5008;50.656;7.188;2023-07-02T06:14:40;19.50;;;13.25;;
9938;SDS011;5008;50.656;7.188;2023-07-02T06:17:06;21.23;;;12.95;;
9938;SDS011;5008;50.656;7.188;2023-07-02T06:19:36;18.77;;;13.82;;
9938;SDS011;5008;50.656;7.188;2023-07-02T06:22:03;21.70;;;13.90;;
9938;SDS011;5008;50.656;7.188;2023-07-02T06:24:30;21.85;;;14.75;;
9938;SDS011;5008;50.656;7.188;2023-07-02T06:26:57;18.90;;;13.98;;
9938;SDS011;5008;50.656;7.188;2023-07-02T06:29:24;17.33;;;13.60;;
9938;SDS011;5008;50.656;7.188;2023-07-02T06:31:53;17.50;;;13.55;;
9938;SDS011;5008;50.656;7.188;2023-07-02T06:34:20;19.73;;;15.00;;
9938;SDS011;5008;50.656;7.188;2023-07-02T06:36:48;23.48;;;14.82;;
9938;SDS011;5008;50.656;7.188;2023-07-02T06:39:15;18.80;;;13.98;;
9938;SDS011;5008;50.656;7.188;2023-07-02T06:41:42;22.42;;;14.77;;
9938;SDS011;5008;50.656;7.188;2023-07-02T06:44:09;19.65;;;13.60;;
9938;SDS011;5008;50.656;7.188;2023-07-02T06:46:35;18.60;;;14.15;;
9938;SDS011;5008;50.656;7.188;2023-07-02T06:49:02;20.40;;;14.38;;
9938;SDS011;5008;50.656;7.188;2023-07-02T06:51:29;22.63;;;15.10;;
9938;SDS011;5008;50.656;7.188;2023-07-02T06:53:57;17.73;;;14.05;;
9938;SDS011;5008;50.656;7.188;2023-07-02T06:56:24;16.90;;;14.48;;
9938;SDS011;5008;50.656;7.188;2023-07-02T06:58:51;20.90;;;14.00;;
9938;SDS011;5008;50.656;7.188;2023-07-02T07:01:19;19.73;;;14.30;;
9938;SDS011;5008;50.656;7.188;2023-07-02T07:03:46;19.45;;;14.55;;
9938;SDS011;5008;50.656;7.188;2023-07-02T07:06:13;23.13;;;14.98;;
9938;SDS011;5008;50.656;7.188;2023-07-02T07:08:40;20.75;;;14.70;;
9938;SDS011;5008;50.656;7.188;2023-07-02T07:11:08;18.88;;;13.95;;
9938;SDS011;5008;50.656;7.188;2023-07-02T07:13:35;19.73;;;13.98;;
9938;SDS011;5008;50.656;7.188;2023-07-02T07:16:02;20.20;;;13.88;;
9938;SDS011;5008;50.656;7.188;2023-07-02T07:18:29;19.02;;;13.90;;
9938;SDS011;5008;50.656;7.188;2023-07-02T07:20:56;23.33;;;15.07;;
9938;SDS011;5008;50.656;7.188;2023-07-02T07:23:23;21.95;;;14.60;;
9938;SDS011;5008;50.656;7.188;2023-07-02T07:25:50;19.63;;;14.18;;
9938;SDS011;5008;50.656;7.188;2023-07-02T07:28:18;21.83;;;14.15;;
9938;SDS011;5008;50.656;7.188;2023-07-02T07:30:45;18.95;;;14.23;;
9938;SDS011;5008;50.656;7.188;2023-07-02T07:33:12;18.15;;;13.73;;
9938;SDS011;5008;50.656;7.188;2023-07-02T07:35:38;18.88;;;13.20;;
9938;SDS011;5008;50.656;7.188;2023-07-02T07:38:05;24.63;;;13.20;;
9938;SDS011;5008;50.656;7.188;2023-07-02T07:40:32;21.35;;;12.48;;
9938;SDS011;5008;50.656;7.188;2023-07-02T07:42:59;18.33;;;12.73;;
9938;SDS011;5008;50.656;7.188;2023-07-02T07:45:27;18.17;;;12.90;;
9938;SDS011;5008;50.656;7.188;2023-07-02T07:47:54;20.63;;;12.70;;
9938;SDS011;5008;50.656;7.188;2023-07-02T07:50:21;18.67;;;11.68;;
9938;SDS011;5008;50.656;7.188;2023-07-02T07:52:48;13.20;;;11.02;;
9938;SDS011;5008;50.656;7.188;2023-07-02T07:55:14;20.23;;;11.88;;
9938;SDS011;5008;50.656;7.188;2023-07-02T07:57:41;14.93;;;10.45;;
9938;SDS011;5008;50.656;7.188;2023-07-02T08:00:08;16.98;;;10.88;;
9938;SDS011;5008;50.656;7.188;2023-07-02T08:02:37;17.50;;;11.30;;
9938;SDS011;5008;50.656;7.188;2023-07-02T08:05:05;16.38;;;11.15;;
9938;SDS011;5008;50.656;7.188;2023-07-02T08:07:32;16.20;;;11.52;;
9938;SDS011;5008;50.656;7.188;2023-07-02T08:09:59;15.68;;;10.50;;
9938;SDS011;5008;50.656;7.188;2023-07-02T08:12:27;16.45;;;10.15;;
9938;SDS011;5008;50.656;7.188;2023-07-02T08:14:54;16.05;;;10.68;;
9938;SDS011;5008;50.656;7.188;2023-07-02T08:17:21;14.48;;;10.30;;
9938;SDS011;5008;50.656;7.188;2023-07-02T08:19:49;16.85;;;11.48;;
9938;SDS011;5008;50.656;7.188;2023-07-02T08:22:16;16.50;;;10.40;;
9938;SDS011;5008;50.656;7.188;2023-07-02T08:24:43;13.38;;;9.73;;
9938;SDS011;5008;50.656;7.188;2023-07-02T08:27:10;12.07;;;9.95;;
9938;SDS011;5008;50.656;7.188;2023-07-02T08:29:39;15.73;;;11.05;;
9938;SDS011;5008;50.656;7.188;2023-07-02T08:32:06;14.07;;;10.60;;
9938;SDS011;5008;50.656;7.188;2023-07-02T08:34:33;17.23;;;10.98;;
9938;SDS011;5008;50.656;7.188;2023-07-02T08:37:01;15.02;;;10.30;;
9938;SDS011;5008;50.656;7.188;2023-07-02T08:39:28;15.35;;;10.50;;
9938;SDS011;5008;50.656;7.188;2023-07-02T08:41:56;14.05;;;10.32;;
9938;SDS011;5008;50.656;7.188;2023-07-02T08:44:22;15.25;;;10.75;;
9938;SDS011;5008;50.656;7.188;2023-07-02T08:46:50;17.58;;;10.50;;
9938;SDS011;5008;50.656;7.188;2023-07-02T08:49:20;14.13;;;10.18;;
9938;SDS011;5008;50.656;7.188;2023-07-02T08:51:47;15.63;;;10.93;;
9938;SDS011;5008;50.656;7.188;2023-07-02T08:54:15;12.85;;;9.68;;
9938;SDS011;5008;50.656;7.188;2023-07-02T08:56:44;13.88;;;9.80;;
9938;SDS011;5008;50.656;7.188;2023-07-02T08:59:10;19.13;;;11.02;;
9938;SDS011;5008;50.656;7.188;2023-07-02T09:01:47;13.85;;;10.05;;
9938;SDS011;5008;50.656;7.188;2023-07-02T09:04:15;16.75;;;9.43;;
9938;SDS011;5008;50.656;7.188;2023-07-02T09:06:42;15.00;;;10.43;;
9938;SDS011;5008;50.656;7.188;2023-07-02T09:09:09;13.80;;;10.07;;
9938;SDS011;5008;50.656;7.188;2023-07-02T09:11:47;12.60;;;9.52;;
9938;SDS011;5008;50.656;7.188;2023-07-02T09:14:23;13.10;;;9.20;;
9938;SDS011;5008;50.656;7.188;2023-07-02T09:17:00;16.08;;;10.32;;
9938;SDS011;5008;50.656;7.188;2023-07-02T09:19:28;15.55;;;10.15;;
9938;SDS011;5008;50.656;7.188;2023-07-02T09:21:56;15.45;;;10.65;;
9938;SDS011;5008;50.656;7.188;2023-07-02T09:24:24;15.05;;;10.60;;
9938;SDS011;5008;50.656;7.188;2023-07-02T09:26:53;12.73;;;9.50;;
9938;SDS011;5008;50.656;7.188;2023-07-02T09:29:21;15.25;;;10.38;;
9938;SDS011;5008;50.656;7.188;2023-07-02T09:31:49;15.18;;;10.98;;
9938;SDS011;5008;50.656;7.188;2023-07-02T09:34:16;13.70;;;10.48;;
9938;SDS011;5008;50.656;7.188;2023-07-02T09:36:43;15.13;;;10.40;;
9938;SDS011;5008;50.656;7.188;2023-07-02T09:39:11;15.23;;;10.55;;
9938;SDS011;5008;50.656;7.188;2023-07-02T09:41:39;16.55;;;11.05;;
9938;SDS011;5008;50.656;7.188;2023-07-02T09:44:08;12.57;;;10.60;;
9938;SDS011;5008;50.656;7.188;2023-07-02T09:46:37;15.23;;;10.77;;
9938;SDS011;5008;50.656;7.188;2023-07-02T09:49:07;14.02;;;10.95;;
9938;SDS011;5008;50.656;7.188;2023-07-02T09:51:38;14.02;;;10.48;;
9938;SDS011;5008;50.656;7.188;2023-07-02T09:54:05;18.02;;;10.55;;
9938;SDS011;5008;50.656;7.188;2023-07-02T09:56:32;12.05;;;9.45;;
9938;SDS011;5008;50.656;7.188;2023-07-02T09:58:59;14.75;;;9.88;;
9938;SDS011;5008;50.656;7.188;2023-07-02T10:01:27;11.40;;;9.30;;
9938;SDS011;5008;50.656;7.188;2023-07-02T10:03:54;12.52;;;9.77;;
9938;SDS011;5008;50.656;7.188;2023-07-02T10:06:20;11.90;;;9.38;;
9938;SDS011;5008;50.656;7.188;2023-07-02T10:08:52;14.93;;;9.75;;
9938;SDS011;5008;50.656;7.188;2023-07-02T10:11:19;15.63;;;9.90;;
9938;SDS011;5008;50.656;7.188;2023-07-02T10:13:46;13.38;;;10.18;;
9938;SDS011;5008;50.656;7.188;2023-07-02T10:16:24;14.48;;;9.55;;
9938;SDS011;5008;50.656;7.188;2023-07-02T10:18:53;12.07;;;9.55;;
9938;SDS011;5008;50.656;7.188;2023-07-02T10:21:20;16.02;;;11.05;;
9938;SDS011;5008;50.656;7.188;2023-07-02T10:23:47;15.40;;;10.65;;
9938;SDS011;5008;50.656;7.188;2023-07-02T10:26:14;15.65;;;10.40;;
9938;SDS011;5008;50.656;7.188;2023-07-02T10:28:42;13.18;;;9.75;;
9938;SDS011;5008;50.656;7.188;2023-07-02T10:31:19;14.98;;;10.40;;
9938;SDS011;5008;50.656;7.188;2023-07-02T10:33:46;14.25;;;9.82;;
9938;SDS011;5008;50.656;7.188;2023-07-02T10:36:21;13.18;;;9.88;;
9938;SDS011;5008;50.656;7.188;2023-07-02T10:38:51;15.60;;;10.63;;
9938;SDS011;5008;50.656;7.188;2023-07-02T10:41:22;16.63;;;10.05;;
9938;SDS011;5008;50.656;7.188;2023-07-02T10:43:51;13.63;;;10.40;;
9938;SDS011;5008;50.656;7.188;2023-07-02T10:46:18;13.65;;;10.27;;
9938;SDS011;5008;50.656;7.188;2023-07-02T10:48:55;13.48;;;10.55;;
9938;SDS011;5008;50.656;7.188;2023-07-02T10:51:24;14.55;;;9.88;;
9938;SDS011;5008;50.656;7.188;2023-07-02T10:53:56;12.30;;;10.07;;
9938;SDS011;5008;50.656;7.188;2023-07-02T10:56:27;14.60;;;9.95;;
9938;SDS011;5008;50.656;7.188;2023-07-02T10:58:54;12.27;;;9.27;;
9938;SDS011;5008;50.656;7.188;2023-07-02T11:01:24;13.02;;;9.70;;
9938;SDS011;5008;50.656;7.188;2023-07-02T11:03:55;11.93;;;9.18;;
9938;SDS011;5008;50.656;7.188;2023-07-02T11:06:24;15.13;;;9.82;;
9938;SDS011;5008;50.656;7.188;2023-07-02T11:08:51;11.50;;;9.25;;
9938;SDS011;5008;50.656;7.188;2023-07-02T11:11:20;12.32;;;9.23;;
9938;SDS011;5008;50.656;7.188;2023-07-02T11:13:48;11.57;;;8.90;;
9938;SDS011;5008;50.656;7.188;2023-07-02T11:16:19;11.65;;;9.65;;
9938;SDS011;5008;50.656;7.188;2023-07-02T11:18:49;13.13;;;8.98;;
9938;SDS011;5008;50.656;7.188;2023-07-02T11:21:16;13.18;;;9.57;;
9938;SDS011;5008;50.656;7.188;2023-07-02T11:23:44;12.07;;;9.23;;
9938;SDS011;5008;50.656;7.188;2023-07-02T11:26:11;12.40;;;9.07;;
9938;SDS011;5008;50.656;7.188;2023-07-02T11:28:47;14.15;;;9.45;;
9938;SDS011;5008;50.656;7.188;2023-07-02T11:31:24;11.80;;;9.18;;
9938;SDS011;5008;50.656;7.188;2023-07-02T11:33:52;13.88;;;9.65;;
9938;SDS011;5008;50.656;7.188;2023-07-02T11:36:19;14.60;;;9.70;;
9938;SDS011;5008;50.656;7.188;2023-07-02T11:38:50;12.52;;;9.38;;
9938;SDS011;5008;50.656;7.188;2023-07-02T11:41:17;12.95;;;9.35;;
9938;SDS011;5008;50.656;7.188;2023-07-02T11:43:45;11.90;;;9.82;;
9938;SDS011;5008;50.656;7.188;2023-07-02T11:46:13;14.75;;;10.05;;
9938;SDS011;5008;50.656;7.188;2023-07-02T11:48:39;14.23;;;8.93;;
9938;SDS011;5008;50.656;7.188;2023-07-02T11:51:06;14.95;;;9.25;;
9938;SDS011;5008;50.656;7.188;2023-07-02T11:53:33;13.98;;;8.80;;
9938;SDS011;5008;50.656;7.188;2023-07-02T11:56:01;11.10;;;8.43;;
9938;SDS011;5008;50.656;7.188;2023-07-02T11:58:28;12.80;;;9.35;;
9938;SDS011;5008;50.656;7.188;2023-07-02T12:00:55;14.60;;;8.77;;
9938;SDS011;5008;50.656;7.188;2023-07-02T12:03:22;13.38;;;9.50;;
9938;SDS011;5008;50.656;7.188;2023-07-02T12:05:48;11.98;;;9.20;;
9938;SDS011;5008;50.656;7.188;2023-07-02T12:08:16;13.32;;;9.35;;
9938;SDS011;5008;50.656;7.188;2023-07-02T12:10:42;12.23;;;8.52;;
9938;SDS011;5008;50.656;7.188;2023-07-02T12:13:11;13.23;;;9.02;;
9938;SDS011;5008;50.656;7.188;2023-07-02T12:15:38;11.68;;;9.25;;
9938;SDS011;5008;50.656;7.188;2023-07-02T12:18:05;12.35;;;8.88;;
9938;SDS011;5008;50.656;7.188;2023-07-02T12:20:32;13.00;;;8.80;;
9938;SDS011;5008;50.656;7.188;2023-07-02T12:22:58;12.85;;;8.85;;
9938;SDS011;5008;50.656;7.188;2023-07-02T12:25:25;12.10;;;9.23;;
9938;SDS011;5008;50.656;7.188;2023-07-02T12:27:52;11.73;;;8.93;;
9938;SDS011;5008;50.656;7.188;2023-07-02T12:30:20;12.63;;;8.80;;
9938;SDS011;5008;50.656;7.188;2023-07-02T12:32:47;13.95;;;9.65;;
9938;SDS011;5008;50.656;7.188;2023-07-02T12:35:14;13.77;;;9.68;;
9938;SDS011;5008;50.656;7.188;2023-07-02T12:37:44;12.50;;;10.15;;
9938;SDS011;5008;50.656;7.188;2023-07-02T12:40:11;13.65;;;9.60;;
9938;SDS011;5008;50.656;7.188;2023-07-02T12:42:40;14.23;;;9.32;;
9938;SDS011;5008;50.656;7.188;2023-07-02T12:45:07;12.63;;;10.20;;
9938;SDS011;5008;50.656;7.188;2023-07-02T12:47:36;16.33;;;10.32;;
9938;SDS011;5008;50.656;7.188;2023-07-02T12:50:04;13.00;;;10.30;;
9938;SDS011;5008;50.656;7.188;2023-07-02T12:52:31;14.82;;;10.02;;
9938;SDS011;5008;50.656;7.188;2023-07-02T12:54:58;14.07;;;9.98;;
9938;SDS011;5008;50.656;7.188;2023-07-02T12:57:25;15.25;;;10.13;;
9938;SDS011;5008;50.656;7.188;2023-07-02T12:59:52;15.32;;;10.25;;
9938;SDS011;5008;50.656;7.188;2023-07-02T13:02:19;13.90;;;10.32;;
9938;SDS011;5008;50.656;7.188;2023-07-02T13:04:47;15.40;;;10.73;;
9938;SDS011;5008;50.656;7.188;2023-07-02T13:07:14;15.95;;;10.25;;
9938;SDS011;5008;50.656;7.188;2023-07-02T13:09:42;14.07;;;10.30;;
9938;SDS011;5008;50.656;7.188;2023-07-02T13:12:09;15.75;;;10.40;;
9938;SDS011;5008;50.656;7.188;2023-07-02T13:14:36;14.95;;;9.95;;
9938;SDS011;5008;50.656;7.188;2023-07-02T13:17:03;14.57;;;10.63;;
9938;SDS011;5008;50.656;7.188;2023-07-02T13:19:31;13.32;;;10.48;;
9938;SDS011;5008;50.656;7.188;2023-07-02T13:21:59;14.50;;;11.20;;
9938;SDS011;5008;50.656;7.188;2023-07-02T13:24:27;12.50;;;10.10;;
9938;SDS011;5008;50.656;7.188;2023-07-02T13:26:58;14.55;;;10.90;;
9938;SDS011;5008;50.656;7.188;2023-07-02T13:29:25;13.27;;;10.25;;
9938;SDS011;5008;50.656;7.188;2023-07-02T13:31:51;13.55;;;10.48;;
9938;SDS011;5008;50.656;7.188;2023-07-02T13:34:18;11.88;;;9.75;;
9938;SDS011;5008;50.656;7.188;2023-07-02T13:36:45;16.77;;;10.48;;
9938;SDS011;5008;50.656;7.188;2023-07-02T13:39:13;12.07;;;9.95;;
9938;SDS011;5008;50.656;7.188;2023-07-02T13:41:40;12.95;;;10.23;;
9938;SDS011;5008;50.656;7.188;2023-07-02T13:44:07;15.18;;;10.75;;
9938;SDS011;5008;50.656;7.188;2023-07-02T13:46:33;15.30;;;10.90;;
9938;SDS011;5008;50.656;7.188;2023-07-02T13:49:00;13.60;;;10.52;;
9938;SDS011;5008;50.656;7.188;2023-07-02T13:51:27;12.98;;;9.77;;
9938;SDS011;5008;50.656;7.188;2023-07-02T13:53:54;13.88;;;10.10;;
9938;SDS011;5008;50.656;7.188;2023-07-02T13:56:22;12.35;;;9.52;;
9938;SDS011;5008;50.656;7.188;2023-07-02T13:59:01;15.07;;;10.02;;
9938;SDS011;5008;50.656;7.188;2023-07-02T14:01:28;11.15;;;9.68;;
9938;SDS011;5008;50.656;7.188;2023-07-02T14:03:56;14.65;;;9.77;;
9938;SDS011;5008;50.656;7.188;2023-07-02T14:06:22;12.65;;;9.93;;
9938;SDS011;5008;50.656;7.188;2023-07-02T14:08:50;14.02;;;9.95;;
9938;SDS011;5008;50.656;7.188;2023-07-02T14:11:16;15.50;;;10.27;;
9938;SDS011;5008;50.656;7.188;2023-07-02T14:13:43;12.48;;;9.95;;
9938;SDS011;5008;50.656;7.188;2023-07-02T14:16:11;14.20;;;9.65;;
9938;SDS011;5008;50.656;7.188;2023-07-02T14:18:39;13.48;;;9.77;;
9938;SDS011;5008;50.656;7.188;2023-07-02T14:21:06;16.27;;;9.93;;
9938;SDS011;5008;50.656;7.188;2023-07-02T14:23:33;12.70;;;9.30;;
9938;SDS011;5008;50.656;7.188;2023-07-02T14:25:59;12.75;;;8.70;;
9938;SDS011;5008;50.656;7.188;2023-07-02T14:28:26;12.65;;;9.43;;
9938;SDS011;5008;50.656;7.188;2023-07-02T14:30:57;11.93;;;8.90;;
9938;SDS011;5008;50.656;7.188;2023-07-02T14:33:26;11.23;;;8.50;;
9938;SDS011;5008;50.656;7.188;2023-07-02T14:35:55;10.88;;;8.68;;
9938;SDS011;5008;50.656;7.188;2023-07-02T14:38:22;15.63;;;9.45;;
9938;SDS011;5008;50.656;7.188;2023-07-02T14:40:49;13.00;;;9.35;;
9938;SDS011;5008;50.656;7.188;2023-07-02T14:43:16;13.82;;;9.73;;
9938;SDS011;5008;50.656;7.188;2023-07-02T14:45:44;13.80;;;9.55;;
9938;SDS011;5008;50.656;7.188;2023-07-02T14:48:13;13.20;;;9.48;;
9938;SDS011;5008;50.656;7.188;2023-07-02T14:50:49;12.50;;;9.52;;
9938;SDS011;5008;50.656;7.188;2023-07-02T14:53:18;11.75;;;8.75;;
9938;SDS011;5008;50.656;7.188;2023-07-02T14:55:45;11.43;;;8.13;;
9938;SDS011;5008;50.656;7.188;2023-07-02T14:58:13;13.40;;;9.27;;
9938;SDS011;5008;50.656;7.188;2023-07-02T15:00:44;11.27;;;8.48;;
9938;SDS011;5008;50.656;7.188;2023-07-02T15:03:12;11.02;;;8.40;;
9938;SDS011;5008;50.656;7.188;2023-07-02T15:05:39;12.48;;;9.02;;
9938;SDS011;5008;50.656;7.188;2023-07-02T15:08:07;12.88;;;9.32;;
9938;SDS011;5008;50.656;7.188;2023-07-02T15:10:37;13.25;;;9.52;;
9938;SDS011;5008;50.656;7.188;2023-07-02T15:13:04;11.88;;;9.05;;
9938;SDS011;5008;50.656;7.188;2023-07-02T15:15:30;12.27;;;9.23;;
9938;SDS011;5008;50.656;7.188;2023-07-02T15:17:57;11.98;;;9.20;;
9938;SDS011;5008;50.656;7.188;2023-07-02T15:20:24;12.05;;;9.25;;
9938;SDS011;5008;50.656;7.188;2023-07-02T15:22:51;12.13;;;8.57;;
9938;SDS011;5008;50.656;7.188;2023-07-02T15:25:19;11.13;;;8.10;;
9938;SDS011;5008;50.656;7.188;2023-07-02T15:27:46;11.27;;;8.30;;
9938;SDS011;5008;50.656;7.188;2023-07-02T15:30:14;13.65;;;8.50;;
9938;SDS011;5008;50.656;7.188;2023-07-02T15:32:41;12.02;;;8.75;;
9938;SDS011;5008;50.656;7.188;2023-07-02T15:35:07;10.90;;;8.70;;
9938;SDS011;5008;50.656;7.188;2023-07-02T15:37:35;14.13;;;9.48;;
9938;SDS011;5008;50.656;7.188;2023-07-02T15:40:02;12.65;;;8.55;;
9938;SDS011;5008;50.656;7.188;2023-07-02T15:42:30;11.18;;;7.88;;
9938;SDS011;5008;50.656;7.188;2023-07-02T15:44:57;10.45;;;8.13;;
9938;SDS011;5008;50.656;7.188;2023-07-02T15:47:25;13.25;;;8.48;;
9938;SDS011;5008;50.656;7.188;2023-07-02T15:49:52;11.48;;;7.97;;
9938;SDS011;5008;50.656;7.188;2023-07-02T15:52:19;13.85;;;8.15;;
9938;SDS011;5008;50.656;7.188;2023-07-02T15:54:46;11.60;;;8.10;;
9938;SDS011;5008;50.656;7.188;2023-07-02T15:57:13;10.55;;;8.40;;
9938;SDS011;5008;50.656;7.188;2023-07-02T15:59:42;14.48;;;9.07;;
9938;SDS011;5008;50.656;7.188;2023-07-02T16:02:09;8.57;;;7.05;;
9938;SDS011;5008;50.656;7.188;2023-07-02T16:04:36;11.85;;;7.88;;
9938;SDS011;5008;50.656;7.188;2023-07-02T16:07:05;10.95;;;7.68;;
9938;SDS011;5008;50.656;7.188;2023-07-02T16:09:34;10.00;;;7.70;;
9938;SDS011;5008;50.656;7.188;2023-07-02T16:12:00;11.13;;;8.43;;
9938;SDS011;5008;50.656;7.188;2023-07-02T16:14:27;12.10;;;7.57;;
9938;SDS011;5008;50.656;7.188;2023-07-02T16:16:55;10.07;;;7.68;;
9938;SDS011;5008;50.656;7.188;2023-07-02T16:19:22;12.52;;;8.85;;
9938;SDS011;5008;50.656;7.188;2023-07-02T16:21:49;9.35;;;7.93;;
9938;SDS011;5008;50.656;7.188;2023-07-02T16:24:20;9.43;;;7.65;;
9938;SDS011;5008;50.656;7.188;2023-07-02T16:26:48;9.75;;;7.57;;
9938;SDS011;5008;50.656;7.188;2023-07-02T16:29:16;11.40;;;8.63;;
9938;SDS011;5008;50.656;7.188;2023-07-02T16:31:44;13.25;;;8.35;;
9938;SDS011;5008;50.656;7.188;2023-07-02T16:34:14;11.38;;;8.07;;
9938;SDS011;5008;50.656;7.188;2023-07-02T16:36:41;10.32;;;8.00;;
9938;SDS011;5008;50.656;7.188;2023-07-02T16:39:08;9.95;;;8.40;;
9938;SDS011;5008;50.656;7.188;2023-07-02T16:41:37;11.65;;;7.85;;
9938;SDS011;5008;50.656;7.188;2023-07-02T16:44:11;9.77;;;7.72;;
9938;SDS011;5008;50.656;7.188;2023-07-02T16:46:38;13.88;;;8.48;;
9938;SDS011;5008;50.656;7.188;2023-07-02T16:49:06;9.68;;;7.82;;
9938;SDS011;5008;50.656;7.188;2023-07-02T16:51:35;9.75;;;7.30;;
9938;SDS011;5008;50.656;7.188;2023-07-02T16:54:05;11.13;;;7.70;;
9938;SDS011;5008;50.656;7.188;2023-07-02T16:56:34;10.93;;;7.78;;
9938;SDS011;5008;50.656;7.188;2023-07-02T16:59:01;10.75;;;7.82;;
9938;SDS011;5008;50.656;7.188;2023-07-02T17:01:28;9.85;;;8.32;;
9938;SDS011;5008;50.656;7.188;2023-07-02T17:03:55;10.50;;;7.65;;
9938;SDS011;5008;50.656;7.188;2023-07-02T17:06:22;11.75;;;7.43;;
9938;SDS011;5008;50.656;7.188;2023-07-02T17:09:14;12.82;;;7.85;;
9938;SDS011;5008;50.656;7.188;2023-07-02T17:11:46;10.95;;;7.53;;
9938;SDS011;5008;50.656;7.188;2023-07-02T17:14:16;9.68;;;7.78;;
9938;SDS011;5008;50.656;7.188;2023-07-02T17:16:46;12.98;;;8.05;;
9938;SDS011;5008;50.656;7.188;2023-07-02T17:19:23;14.25;;;7.82;;
9938;SDS011;5008;50.656;7.188;2023-07-02T17:21:51;12.18;;;8.15;;
9938;SDS011;5008;50.656;7.188;2023-07-02T17:24:21;12.18;;;8.25;;
9938;SDS011;5008;50.656;7.188;2023-07-02T17:26:48;11.35;;;8.00;;
9938;SDS011;5008;50.656;7.188;2023-07-02T17:29:16;13.00;;;8.05;;
9938;SDS011;5008;50.656;7.188;2023-07-02T17:31:46;12.23;;;7.82;;
9938;SDS011;5008;50.656;7.188;2023-07-02T17:34:15;10.32;;;7.50;;
9938;SDS011;5008;50.656;7.188;2023-07-02T17:36:44;12.52;;;7.65;;
9938;SDS011;5008;50.656;7.188;2023-07-02T17:39:13;12.00;;;7.63;;
9938;SDS011;5008;50.656;7.188;2023-07-02T17:41:42;11.77;;;7.50;;
9938;SDS011;5008;50.656;7.188;2023-07-02T17:44:09;12.80;;;7.95;;
9938;SDS011;5008;50.656;7.188;2023-07-02T17:46:36;10.50;;;7.70;;
9938;SDS011;5008;50.656;7.188;2023-07-02T17:49:04;11.13;;;8.63;;
9938;SDS011;5008;50.656;7.188;2023-07-02T17:51:32;13.75;;;7.95;;
9938;SDS011;5008;50.656;7.188;2023-07-02T17:54:00;11.98;;;7.85;;
9938;SDS011;5008;50.656;7.188;2023-07-02T17:56:27;11.15;;;7.47;;
9938;SDS011;5008;50.656;7.188;2023-07-02T17:58:55;11.05;;;8.32;;
9938;SDS011;5008;50.656;7.188;2023-07-02T18:01:22;9.43;;;7.25;;
9938;SDS011;5008;50.656;7.188;2023-07-02T18:03:50;11.10;;;7.78;;
9938;SDS011;5008;50.656;7.188;2023-07-02T18:06:17;10.15;;;7.55;;
9938;SDS011;5008;50.656;7.188;2023-07-02T18:08:46;9.63;;;7.05;;
9938;SDS011;5008;50.656;7.188;2023-07-02T18:11:13;13.10;;;8.20;;
9938;SDS011;5008;50.656;7.188;2023-07-02T18:13:44;10.73;;;7.60;;
9938;SDS011;5008;50.656;7.188;2023-07-02T18:16:12;12.98;;;7.38;;
9938;SDS011;5008;50.656;7.188;2023-07-02T18:18:40;10.00;;;7.05;;
9938;SDS011;5008;50.656;7.188;2023-07-02T18:21:07;8.98;;;7.18;;
9938;SDS011;5008;50.656;7.188;2023-07-02T18:23:34;10.60;;;7.72;;
9938;SDS011;5008;50.656;7.188;2023-07-02T18:26:02;11.27;;;7.85;;
9938;SDS011;5008;50.656;7.188;2023-07-02T18:28:30;10.50;;;7.68;;
9938;SDS011;5008;50.656;7.188;2023-07-02T18:30:57;11.40;;;7.53;;
9938;SDS011;5008;50.656;7.188;2023-07-02T18:33:26;10.50;;;7.45;;
9938;SDS011;5008;50.656;7.188;2023-07-02T18:35:55;9.98;;;6.93;;
9938;SDS011;5008;50.656;7.188;2023-07-02T18:38:22;12.40;;;7.60;;
9938;SDS011;5008;50.656;7.188;2023-07-02T18:41:06;9.93;;;8.02;;
9938;SDS011;5008;50.656;7.188;2023-07-02T18:43:36;10.38;;;7.13;;
9938;SDS011;5008;50.656;7.188;2023-07-02T18:46:04;11.02;;;7.75;;
9938;SDS011;5008;50.656;7.188;2023-07-02T18:48:33;11.05;;;7.78;;
9938;SDS011;5008;50.656;7.188;2023-07-02T18:51:03;11.30;;;8.02;;
9938;SDS011;5008;50.656;7.188;2023-07-02T18:53:31;11.95;;;7.68;;
9938;SDS011;5008;50.656;7.188;2023-07-02T18:56:00;9.70;;;7.30;;
9938;SDS011;5008;50.656;7.188;2023-07-02T18:58:28;11.38;;;7.30;;
9938;SDS011;5008;50.656;7.188;2023-07-02T19:00:56;9.85;;;6.97;;
9938;SDS011;5008;50.656;7.188;2023-07-02T19:03:23;12.77;;;8.13;;
9938;SDS011;5008;50.656;7.188;2023-07-02T19:05:53;12.13;;;7.85;;
9938;SDS011;5008;50.656;7.188;2023-07-02T19:08:20;11.32;;;7.47;;
9938;SDS011;5008;50.656;7.188;2023-07-02T19:10:57;14.18;;;7.78;;
9938;SDS011;5008;50.656;7.188;2023-07-02T19:13:25;11.02;;;7.25;;
9938;SDS011;5008;50.656;7.188;2023-07-02T19:15:52;11.20;;;7.47;;
9938;SDS011;5008;50.656;7.188;2023-07-02T19:18:19;10.48;;;8.00;;
9938;SDS011;5008;50.656;7.188;2023-07-02T19:20:47;10.38;;;7.32;;
9938;SDS011;5008;50.656;7.188;2023-07-02T19:23:15;10.63;;;6.53;;
9938;SDS011;5008;50.656;7.188;2023-07-02T19:25:43;11.30;;;7.55;;
9938;SDS011;5008;50.656;7.188;2023-07-02T19:28:11;10.45;;;7.53;;
9938;SDS011;5008;50.656;7.188;2023-07-02T19:30:38;11.05;;;6.85;;
9938;SDS011;5008;50.656;7.188;2023-07-02T19:33:06;9.95;;;7.30;;
9938;SDS011;5008;50.656;7.188;2023-07-02T19:35:36;12.70;;;7.32;;
9938;SDS011;5008;50.656;7.188;2023-07-02T19:38:03;10.10;;;7.03;;
9938;SDS011;5008;50.656;7.188;2023-07-02T19:40:32;10.80;;;7.25;;
9938;SDS011;5008;50.656;7.188;2023-07-02T19:42:59;10.25;;;6.82;;